createdAt,value
2023-03-01T00:01:56.266Z,-0.7
2023-03-01T00:06:03.057Z,-0.7
2023-03-01T00:24:22.395Z,-0.8
2023-03-01T00:36:36.396Z,-0.9
2023-03-01T00:38:38.182Z,-0.9
2023-03-01T00:50:52.182Z,-1
2023-03-01T00:55:58.254Z,-1.1
2023-03-01T00:58:00.039Z,-1
2023-03-01T01:00:05.065Z,-1.1
2023-03-01T01:02:06.852Z,-1.1
2023-03-01T01:04:08.595Z,-1
2023-03-01T01:06:10.377Z,-1.1
2023-03-01T01:08:12.115Z,-1.1
2023-03-01T01:10:13.935Z,-1.1
2023-03-01T01:12:15.695Z,-1
2023-03-01T01:14:20.762Z,-1.1
2023-03-01T01:18:24.266Z,-1.2
2023-03-01T01:22:27.814Z,-1.2
2023-03-01T01:26:31.673Z,-1.3
2023-03-01T01:30:38.134Z,-1.3
2023-03-01T01:32:39.916Z,-1.3
2023-03-01T01:34:41.691Z,-1.3
2023-03-01T01:36:43.442Z,-1.3
2023-03-01T01:40:46.971Z,-1.3
2023-03-01T01:49:24.258Z,-1.5
2023-03-01T01:51:26.016Z,-1.4
2023-03-01T01:53:27.772Z,-1.4
2023-03-01T01:55:32.784Z,-1.4
2023-03-01T01:57:34.568Z,-1.4
2023-03-01T01:59:36.310Z,-1.4
2023-03-01T02:01:38.066Z,-1.4
2023-03-01T02:03:39.917Z,-1.5
2023-03-01T02:05:41.580Z,-1.5
2023-03-01T02:07:43.332Z,-1.5
2023-03-01T02:09:48.316Z,-1.6
2023-03-01T02:11:50.071Z,-1.6
2023-03-01T02:13:51.863Z,-1.6
2023-03-01T02:15:53.627Z,-1.6
2023-03-01T02:17:55.316Z,-1.6
2023-03-01T02:19:57.110Z,-1.6
2023-03-01T02:21:58.855Z,-1.6
2023-03-01T02:24:03.865Z,-1.6
2023-03-01T02:26:07.177Z,-1.5
2023-03-01T02:28:08.888Z,-1.6
2023-03-01T02:30:10.659Z,-1.7
2023-03-01T02:32:12.430Z,-1.6
2023-03-01T02:38:20.900Z,-1.7
2023-03-01T02:40:22.733Z,-1.7
2023-03-01T02:42:26.892Z,-1.7
2023-03-01T02:43:26.896Z,-1.7
2023-03-01T02:45:28.614Z,-1.7
2023-03-01T02:47:30.373Z,-1.7
2023-03-01T02:49:32.115Z,-1.6
2023-03-01T02:51:37.118Z,-1.6
2023-03-01T02:53:38.857Z,-1.7
2023-03-01T02:55:40.588Z,-1.7
2023-03-01T02:57:42.292Z,-1.7
2023-03-01T03:03:47.585Z,-1.8
2023-03-01T03:11:57.734Z,-1.8
2023-03-01T03:13:59.482Z,-1.8
2023-03-01T03:18:02.960Z,-1.8
2023-03-01T03:20:07.972Z,-1.8
2023-03-01T03:22:09.685Z,-1.8
2023-03-01T03:30:16.604Z,-2
2023-03-01T03:32:18.335Z,-1.9
2023-03-01T03:36:25.039Z,-2
2023-03-01T03:39:29.250Z,-2
2023-03-01T03:41:30.977Z,-2.1
2023-03-01T03:43:32.718Z,-2
2023-03-01T03:45:34.640Z,-2
2023-03-01T03:47:39.425Z,-2
2023-03-01T03:49:41.136Z,-2.1
2023-03-01T03:51:42.848Z,-2.1
2023-03-01T03:55:46.349Z,-2
2023-03-01T03:57:48.069Z,-2.1
2023-03-01T03:59:49.799Z,-2.1
2023-03-01T04:01:54.859Z,-2.1
2023-03-01T04:03:56.517Z,-2.1
2023-03-01T04:05:58.233Z,-2.1
2023-03-01T04:07:59.955Z,-2.1
2023-03-01T04:10:01.723Z,-2.1
2023-03-01T04:12:03.433Z,-2.1
2023-03-01T04:14:05.100Z,-2.2
2023-03-01T04:16:10.165Z,-2.1
2023-03-01T04:18:11.801Z,-2.1
2023-03-01T04:20:13.577Z,-2.1
2023-03-01T04:26:18.697Z,-2.1
2023-03-01T04:34:28.867Z,-2.1
2023-03-01T04:35:31.436Z,-2.1
2023-03-01T04:37:33.096Z,-2.2
2023-03-01T04:39:34.822Z,-2.2
2023-03-01T04:43:41.534Z,-2.2
2023-03-01T04:45:43.334Z,-2.2
2023-03-01T04:51:48.407Z,-2.3
2023-03-01T04:53:50.120Z,-2.2
2023-03-01T04:55:51.856Z,-2.3
2023-03-01T04:57:56.829Z,-2.4
2023-03-01T04:59:58.490Z,-2.3
2023-03-01T05:02:00.251Z,-2.3
2023-03-01T05:06:03.710Z,-2.3
2023-03-01T05:08:05.398Z,-2.3
2023-03-01T05:12:12.082Z,-2.4
2023-03-01T05:14:13.788Z,-2.4
2023-03-01T05:18:17.252Z,-2.4
2023-03-01T05:20:18.957Z,-2.4
2023-03-01T05:22:20.648Z,-2.4
2023-03-01T05:24:22.358Z,-2.3
2023-03-01T05:26:28.712Z,-2.4
2023-03-01T05:28:29.035Z,-2.4
2023-03-01T05:30:30.941Z,-2.3
2023-03-01T05:32:59.654Z,-2.5
2023-03-01T05:35:01.416Z,-2.4
2023-03-01T05:37:03.072Z,-2.4
2023-03-01T05:39:08.059Z,-2.4
2023-03-01T05:41:09.757Z,-2.4
2023-03-01T05:43:11.490Z,-2.3
2023-03-01T05:45:13.176Z,-2.3
2023-03-01T05:47:14.886Z,-2.3
2023-03-01T05:49:16.618Z,-2.3
2023-03-01T05:51:18.310Z,-2.3
2023-03-01T05:53:23.276Z,-2.4
2023-03-01T05:55:25.034Z,-2.3
2023-03-01T05:57:26.774Z,-2.3
2023-03-01T05:59:28.470Z,-2.4
2023-03-01T06:01:30.233Z,-2.5
2023-03-01T06:03:31.896Z,-2.5
2023-03-01T06:05:33.743Z,-2.5
2023-03-01T06:07:38.575Z,-2.5
2023-03-01T06:09:40.342Z,-2.5
2023-03-01T06:11:41.996Z,-2.5
2023-03-01T06:13:43.713Z,-2.5
2023-03-01T06:15:45.463Z,-2.4
2023-03-01T06:17:47.139Z,-2.4
2023-03-01T06:19:48.806Z,-2.5
2023-03-01T06:29:01.365Z,-2.5
2023-03-01T06:31:03.086Z,-2.4
2023-03-01T06:33:04.808Z,-2.4
2023-03-01T06:35:11.631Z,-2.4
2023-03-01T06:37:11.464Z,-2.4
2023-03-01T06:43:16.578Z,-2.4
2023-03-01T06:45:18.271Z,-2.4
2023-03-01T06:47:19.998Z,-2.3
2023-03-01T06:53:28.375Z,-2.2
2023-03-01T06:57:31.755Z,-2.1
2023-03-01T07:01:35.157Z,-1.9
2023-03-01T07:03:40.118Z,-1.9
2023-03-01T07:05:41.805Z,-1.8
2023-03-01T07:07:43.518Z,-1.7
2023-03-01T07:11:46.955Z,-1.6
2023-03-01T07:13:48.685Z,-1.5
2023-03-01T07:15:50.447Z,-1.5
2023-03-01T07:17:55.369Z,-1.4
2023-03-01T07:19:57.069Z,-1.4
2023-03-01T07:21:58.790Z,-1.4
2023-03-01T07:23:01.288Z,-1.2
2023-03-01T07:25:03.029Z,-1.2
2023-03-01T07:27:04.751Z,-1.2
2023-03-01T07:29:06.437Z,-1.2
2023-03-01T07:31:11.418Z,-1.1
2023-03-01T07:33:13.229Z,-1.1
2023-03-01T07:35:14.889Z,-1.1
2023-03-01T07:37:16.626Z,-1
2023-03-01T07:41:20.134Z,-0.9
2023-03-01T07:49:30.401Z,-0.7
2023-03-01T07:53:33.933Z,-0.7
2023-03-01T08:01:44.349Z,-0.5
2023-03-01T08:05:47.899Z,-0.1
2023-03-01T08:07:49.690Z,0
2023-03-01T08:09:51.460Z,0.1
2023-03-01T08:11:53.276Z,0.1
2023-03-01T08:13:58.336Z,0.3
2023-03-01T08:16:00.206Z,0.4
2023-03-01T08:18:03.478Z,0.4
2023-03-01T08:21:07.778Z,0.6
2023-03-01T08:23:09.591Z,0.7
2023-03-01T08:25:11.430Z,0.8
2023-03-01T08:27:16.595Z,0.9
2023-03-01T08:29:18.298Z,1
2023-03-01T08:31:20.213Z,1.1
2023-03-01T08:33:22.019Z,1.2
2023-03-01T08:35:23.851Z,1.4
2023-03-01T08:37:25.640Z,1.5
2023-03-01T08:39:27.552Z,1.6
2023-03-01T08:41:32.594Z,1.3
2023-03-01T08:47:38.129Z,1.7
2023-03-01T08:49:40.026Z,1.7
2023-03-01T08:55:50.681Z,2.1
2023-03-01T08:57:50.718Z,2.2
2023-03-01T09:05:58.301Z,2.6
2023-03-01T09:08:00.216Z,2.7
2023-03-01T09:10:05.254Z,2.8
2023-03-01T09:14:09.036Z,3
2023-03-01T09:18:39.728Z,3.1
2023-03-01T09:22:46.812Z,3.3
2023-03-01T09:24:48.723Z,3.3
2023-03-01T09:26:51.674Z,3.5
2023-03-01T09:34:58.373Z,3.7
2023-03-01T09:39:05.504Z,4
2023-03-01T09:43:09.418Z,4
2023-03-01T09:45:11.367Z,4.1
2023-03-01T09:57:26.379Z,4.6
2023-03-01T09:59:28.406Z,4.8
2023-03-01T10:01:30.593Z,5
2023-03-01T10:03:32.379Z,5.1
2023-03-01T10:05:37.537Z,4.9
2023-03-01T10:07:39.512Z,5.1
2023-03-01T10:09:41.505Z,5.3
2023-03-01T10:10:44.129Z,5.1
2023-03-01T10:12:46.127Z,5.2
2023-03-01T10:14:48.132Z,5.4
2023-03-01T10:16:50.140Z,5.4
2023-03-01T10:18:55.380Z,5.6
2023-03-01T10:20:57.387Z,5.7
2023-03-01T10:22:59.410Z,5.7
2023-03-01T10:29:05.513Z,5.7
2023-03-01T10:31:07.550Z,6.1
2023-03-01T10:33:12.815Z,5.9
2023-03-01T10:35:14.859Z,5.8
2023-03-01T10:37:16.896Z,5.9
2023-03-01T10:39:18.916Z,6.2
2023-03-01T10:41:20.966Z,6.3
2023-03-01T10:43:23.042Z,6.3
2023-03-01T10:45:25.930Z,6
2023-03-01T10:47:30.379Z,6.1
2023-03-01T10:49:32.525Z,6.2
2023-03-01T10:51:34.481Z,6.1
2023-03-01T10:53:36.517Z,6.3
2023-03-01T10:55:38.579Z,6.4
2023-03-01T10:57:42.558Z,6.5
2023-03-01T10:59:42.717Z,6.5
2023-03-01T11:01:48.067Z,6.3
2023-03-01T11:03:50.075Z,6.4
2023-03-01T11:05:52.141Z,6.5
2023-03-01T11:08:56.860Z,6.3
2023-03-01T11:10:58.941Z,6.5
2023-03-01T11:13:00.986Z,6.5
2023-03-01T11:15:06.318Z,6.6
2023-03-01T11:17:08.380Z,6.5
2023-03-01T11:19:10.442Z,6.8
2023-03-01T11:21:12.497Z,6.7
2023-03-01T11:25:16.660Z,6.9
2023-03-01T11:27:18.752Z,7
2023-03-01T11:29:24.055Z,6.8
2023-03-01T11:31:26.237Z,6.8
2023-03-01T11:33:28.221Z,6.9
2023-03-01T11:35:30.309Z,7.1
2023-03-01T11:37:32.361Z,7.6
2023-03-01T11:39:34.441Z,7.7
2023-03-01T11:41:36.575Z,7.4
2023-03-01T11:47:46.186Z,8.6
2023-03-01T11:49:48.095Z,8.1
2023-03-01T11:57:59.685Z,8.8
2023-03-01T12:00:01.806Z,9
2023-03-01T12:03:06.495Z,7.7
2023-03-01T12:05:08.620Z,7.6
2023-03-01T12:07:10.694Z,8
2023-03-01T12:09:12.799Z,8.7
2023-03-01T12:11:18.085Z,9.8
2023-03-01T12:13:20.200Z,9.8
2023-03-01T12:19:26.500Z,10.7
2023-03-01T12:21:28.869Z,10.2
2023-03-01T12:23:30.646Z,9.8
2023-03-01T12:25:35.998Z,11.1
2023-03-01T12:27:38.092Z,10.8
2023-03-01T12:29:40.175Z,9.5
2023-03-01T12:35:46.415Z,9.5
2023-03-01T12:39:53.835Z,9.4
2023-03-01T12:41:55.943Z,9.4
2023-03-01T12:43:58.051Z,9.1
2023-03-01T12:46:00.173Z,9
2023-03-01T12:48:02.260Z,9.7
2023-03-01T12:50:04.343Z,9.7
2023-03-01T12:52:06.443Z,10.4
2023-03-01T12:54:11.780Z,10.1
2023-03-01T12:56:13.815Z,10.2
2023-03-01T12:58:15.916Z,10.2
2023-03-01T13:02:46.737Z,10.2
2023-03-01T13:04:48.835Z,9.8
2023-03-01T13:06:54.192Z,9.7
2023-03-01T13:08:56.316Z,9.9
2023-03-01T13:19:06.651Z,9.7
2023-03-01T13:23:14.130Z,9.6
2023-03-01T13:25:16.247Z,9.8
2023-03-01T13:27:18.387Z,9.4
2023-03-01T13:29:20.482Z,9.2
2023-03-01T13:31:22.658Z,8.7
2023-03-01T13:33:24.797Z,9.3
2023-03-01T13:35:30.021Z,9.5
2023-03-01T13:37:32.107Z,9.6
2023-03-01T13:39:34.240Z,9.6
2023-03-01T13:41:36.334Z,9.4
2023-03-01T13:47:42.671Z,10.7
2023-03-01T13:49:47.818Z,10
2023-03-01T13:54:54.531Z,10.1
2023-03-01T13:56:56.652Z,10.1
2023-03-01T13:58:58.752Z,10.1
2023-03-01T14:01:00.859Z,10.4
2023-03-01T14:03:06.595Z,12
2023-03-01T14:05:08.054Z,12
2023-03-01T14:07:10.109Z,12
2023-03-01T14:09:13.758Z,11.8
2023-03-01T14:11:15.775Z,11.9
2023-03-01T14:13:17.781Z,11.7
2023-03-01T14:15:19.788Z,12.1
2023-03-01T14:17:24.945Z,12.6
2023-03-01T14:19:33.099Z,12.7
2023-03-01T14:21:29.029Z,12.7
2023-03-01T14:23:31.062Z,13.1
2023-03-01T14:25:33.200Z,13.3
2023-03-01T14:27:35.216Z,13.4
2023-03-01T14:29:37.301Z,13.2
2023-03-01T14:35:48.032Z,13.1
2023-03-01T14:37:48.570Z,13.4
2023-03-01T14:46:00.009Z,13.4
2023-03-01T14:48:01.946Z,12.8
2023-03-01T14:51:06.598Z,12.3
2023-03-01T14:53:08.715Z,12.4
2023-03-01T14:55:10.686Z,13.1
2023-03-01T14:57:12.707Z,12.7
2023-03-01T14:59:17.916Z,14.5
2023-03-01T15:01:20.079Z,14.4
2023-03-01T15:03:22.035Z,14.2
2023-03-01T15:05:24.068Z,13.7
2023-03-01T15:07:26.105Z,12.8
2023-03-01T15:09:28.549Z,12.7
2023-03-01T15:11:30.216Z,12.8
2023-03-01T15:13:35.387Z,13.2
2023-03-01T15:15:37.524Z,13.5
2023-03-01T15:17:39.516Z,12.5
2023-03-01T15:19:41.556Z,12.6
2023-03-01T15:25:47.691Z,13.5
2023-03-01T15:27:52.895Z,12.9
2023-03-01T15:31:57.032Z,12.5
2023-03-01T15:33:59.029Z,13.4
2023-03-01T15:36:01.135Z,13.3
2023-03-01T15:38:03.145Z,12.7
2023-03-01T15:40:05.197Z,12.3
2023-03-01T15:42:10.357Z,12
2023-03-01T15:44:12.420Z,11.8
2023-03-01T15:46:14.498Z,12.2
2023-03-01T15:47:17.042Z,11.9
2023-03-01T15:49:19.099Z,11.7
2023-03-01T15:51:21.151Z,11.6
2023-03-01T15:53:23.190Z,12.1
2023-03-01T15:55:28.395Z,12.2
2023-03-01T16:03:36.592Z,11.4
2023-03-01T16:05:38.659Z,11.3
2023-03-01T16:07:40.780Z,11.5
2023-03-01T16:11:47.985Z,11.7
2023-03-01T16:15:52.101Z,11.4
2023-03-01T16:17:54.150Z,10
2023-03-01T16:19:56.188Z,8.5
2023-03-01T16:21:58.349Z,8
2023-03-01T16:24:03.746Z,7.5
2023-03-01T16:26:05.891Z,7.4
2023-03-01T16:28:08.041Z,7.1
2023-03-01T16:30:10.202Z,7
2023-03-01T16:32:12.331Z,7
2023-03-01T16:36:16.528Z,6.8
2023-03-01T16:38:21.894Z,6.6
2023-03-01T16:42:26.142Z,6.6
2023-03-01T16:46:57.074Z,6.4
2023-03-01T16:48:59.154Z,6.3
2023-03-01T16:53:06.600Z,6.2
2023-03-01T16:57:10.786Z,6.1
2023-03-01T17:01:15.038Z,6
2023-03-01T17:03:17.070Z,6
2023-03-01T17:05:22.351Z,5.8
2023-03-01T17:07:24.380Z,5.8
2023-03-01T17:09:26.497Z,5.8
2023-03-01T17:11:28.542Z,5.7
2023-03-01T17:13:30.604Z,5.6
2023-03-01T17:15:32.668Z,5.5
2023-03-01T17:17:34.719Z,5.5
2023-03-01T17:19:40.009Z,5.4
2023-03-01T17:21:42.027Z,5.5
2023-03-01T17:23:44.109Z,5.4
2023-03-01T17:25:46.145Z,5.4
2023-03-01T17:27:48.199Z,5.3
2023-03-01T17:29:50.208Z,5.2
2023-03-01T17:31:52.410Z,5.2
2023-03-01T17:33:58.930Z,5
2023-03-01T17:35:59.681Z,5
2023-03-01T17:38:01.595Z,5
2023-03-01T17:39:04.205Z,5
2023-03-01T17:41:06.248Z,4.9
2023-03-01T17:43:08.254Z,5
2023-03-01T17:45:10.295Z,4.9
2023-03-01T17:47:15.538Z,4.8
2023-03-01T17:49:17.575Z,4.8
2023-03-01T17:51:19.600Z,4.7
2023-03-01T18:05:36.961Z,4.4
2023-03-01T18:07:38.980Z,4.4
2023-03-01T18:11:42.999Z,4.4
2023-03-01T18:15:50.270Z,4.3
2023-03-01T18:26:00.312Z,4.2
2023-03-01T18:28:02.348Z,4
2023-03-01T18:30:07.583Z,4
2023-03-01T18:32:09.595Z,4
2023-03-01T18:34:11.570Z,3.9
2023-03-01T18:35:14.189Z,3.9
2023-03-01T18:37:16.157Z,3.8
2023-03-01T18:39:18.177Z,3.9
2023-03-01T18:41:20.182Z,3.8
2023-03-01T18:43:25.408Z,3.8
2023-03-01T18:45:27.386Z,3.7
2023-03-01T18:47:29.385Z,3.7
2023-03-01T18:49:31.440Z,3.8
2023-03-01T18:55:37.350Z,3.7
2023-03-01T19:01:46.637Z,3.6
2023-03-01T19:03:48.516Z,3.6
2023-03-01T19:05:50.505Z,3.5
2023-03-01T19:07:52.480Z,3.5
2023-03-01T19:09:54.476Z,3.6
2023-03-01T19:11:59.684Z,3.5
2023-03-01T19:14:01.682Z,3.6
2023-03-01T19:16:03.718Z,3.6
2023-03-01T19:20:07.634Z,3.5
2023-03-01T19:22:09.572Z,3.4
2023-03-01T19:24:11.556Z,3.4
2023-03-01T19:26:16.786Z,3.4
2023-03-01T19:28:18.783Z,3.4
2023-03-01T19:30:20.739Z,3.3
2023-03-01T19:31:23.446Z,3.3
2023-03-01T19:33:25.300Z,3.2
2023-03-01T19:35:27.385Z,3.2
2023-03-01T19:37:29.258Z,3.2
2023-03-01T19:39:34.440Z,3.1
2023-03-01T19:41:36.420Z,3.2
2023-03-01T19:43:38.370Z,3.2
2023-03-01T19:45:40.355Z,3.1
2023-03-01T19:47:42.329Z,3.1
2023-03-01T19:49:44.262Z,3
2023-03-01T19:51:46.235Z,2.9
2023-03-01T19:53:51.434Z,2.9
2023-03-01T19:55:53.386Z,2.8
2023-03-01T19:57:55.332Z,2.8
2023-03-01T19:59:57.296Z,2.7
2023-03-01T20:02:00.884Z,2.7
2023-03-01T20:04:02.796Z,2.7
2023-03-01T20:06:04.696Z,2.6
2023-03-01T20:08:09.866Z,2.6
2023-03-01T20:10:11.815Z,2.6
2023-03-01T20:12:13.775Z,2.6
2023-03-01T20:14:15.741Z,2.6
2023-03-01T20:18:19.611Z,2.5
2023-03-01T20:20:21.560Z,2.4
2023-03-01T20:22:26.736Z,2.5
2023-03-01T20:24:28.667Z,2.4
2023-03-01T20:28:59.428Z,2.5
2023-03-01T20:31:01.498Z,2.5
2023-03-01T20:33:03.326Z,2.4
2023-03-01T20:35:08.490Z,2.4
2023-03-01T20:37:10.452Z,2.4
2023-03-01T20:39:12.369Z,2.4
2023-03-01T20:41:14.299Z,2.3
2023-03-01T20:43:16.229Z,2.3
2023-03-01T20:45:18.200Z,2.3
2023-03-01T20:49:25.293Z,2.2
2023-03-01T20:51:27.214Z,2.2
2023-03-01T20:53:29.147Z,2.2
2023-03-01T20:57:32.999Z,2
2023-03-01T21:01:36.852Z,2
2023-03-01T21:07:45.870Z,2
2023-03-01T21:09:47.832Z,2
2023-03-01T21:11:49.736Z,1.9
2023-03-01T21:13:51.616Z,1.8
2023-03-01T21:15:53.544Z,1.8
2023-03-01T21:20:00.620Z,1.7
2023-03-01T21:22:02.512Z,1.7
2023-03-01T21:23:05.094Z,1.7
2023-03-01T21:25:06.983Z,1.7
2023-03-01T21:27:08.914Z,1.7
2023-03-01T21:29:10.828Z,1.6
2023-03-01T21:31:16.003Z,1.6
2023-03-01T21:33:17.858Z,1.6
2023-03-01T21:35:19.784Z,1.7
2023-03-01T21:37:21.662Z,1.7
2023-03-01T21:39:23.565Z,1.7
2023-03-01T21:41:25.456Z,1.7
2023-03-01T21:43:27.410Z,1.7
2023-03-01T21:45:32.539Z,1.7
2023-03-01T21:47:34.386Z,1.6
2023-03-01T21:49:36.394Z,1.6
2023-03-01T21:51:38.179Z,1.5
2023-03-01T21:55:41.968Z,1.6
2023-03-01T21:57:43.860Z,1.6
2023-03-01T22:01:50.886Z,1.5
2023-03-01T22:05:54.694Z,1.5
2023-03-01T22:18:09.320Z,1.3
2023-03-01T22:19:11.867Z,1.3
2023-03-01T22:21:13.756Z,1.4
2023-03-01T22:23:15.629Z,1.3
2023-03-01T22:25:17.505Z,1.3
2023-03-01T22:27:22.656Z,1.2
2023-03-01T22:29:24.571Z,1.3
2023-03-01T22:31:26.499Z,1.2
2023-03-01T22:33:28.332Z,1.2
2023-03-01T22:35:30.261Z,1.2
2023-03-01T22:37:32.118Z,1.1
2023-03-01T22:39:33.990Z,1.1
2023-03-01T22:41:39.116Z,1.1
2023-03-01T22:43:41.005Z,1
2023-03-01T22:45:42.913Z,1
2023-03-01T22:47:44.776Z,1
2023-03-01T22:49:46.657Z,1
2023-03-01T22:51:48.557Z,1
2023-03-01T22:53:50.432Z,1
2023-03-01T22:55:55.564Z,0.9
2023-03-01T22:57:57.426Z,1
2023-03-01T22:59:59.306Z,0.9
2023-03-01T23:02:01.232Z,0.9
2023-03-01T23:06:04.934Z,0.9
2023-03-01T23:08:06.806Z,1
2023-03-01T23:10:11.907Z,1
2023-03-01T23:15:18.239Z,1.1
2023-03-01T23:17:20.118Z,1
2023-03-01T23:19:21.999Z,1.1
2023-03-01T23:21:23.882Z,1.1
2023-03-01T23:23:28.994Z,1.1
2023-03-01T23:25:30.926Z,1
2023-03-01T23:27:32.773Z,1.2
2023-03-01T23:29:34.677Z,1.1
2023-03-01T23:43:51.151Z,1.3
2023-03-01T23:45:53.084Z,1.4
2023-03-01T23:47:55.015Z,1.3
2023-03-01T23:49:56.847Z,1.3
2023-03-01T23:52:01.990Z,1.3
2023-03-01T23:54:03.894Z,1.4
2023-03-01T23:56:05.792Z,1.4
